sensor_id;sensor_type;location;lat;lon;timestamp;pressure;altitude;pressure_sealevel;temperature;humidity
20455;BME280;10386;54.314;10.022;2023-04-23T00:02:09;100615.16;;;15.12;100.00
20455;BME280;10386;54.314;10.022;2023-04-23T00:04:48;100607.50;;;15.16;100.00
20455;BME280;10386;54.314;10.022;2023-04-23T00:07:18;100601.59;;;15.11;100.00
20455;BME280;10386;54.314;10.022;2023-04-23T00:09:45;100598.03;;;15.10;100.00
20455;BME280;10386;54.314;10.022;2023-04-23T00:12:12;100592.97;;;15.15;100.00
20455;BME280;10386;54.314;10.022;2023-04-23T00:14:41;100585.34;;;15.09;100.00
20455;BME280;10386;54.314;10.022;2023-04-23T00:17:09;100590.66;;;15.11;100.00
20455;BME280;10386;54.314;10.022;2023-04-23T00:19:37;100586.94;;;15.02;100.00
20455;BME280;10386;54.314;10.022;2023-04-23T00:22:04;100576.28;;;14.99;100.00
20455;BME280;10386;54.314;10.022;2023-04-23T00:24:31;100566.47;;;14.97;100.00
20455;BME280;10386;54.314;10.022;2023-04-23T00:27:01;100558.13;;;15.08;100.00
20455;BME280;10386;54.314;10.022;2023-04-23T00:29:29;100559.28;;;14.96;100.00
20455;BME280;10386;54.314;10.022;2023-04-23T00:31:55;100553.25;;;14.92;100.00
20455;BME280;10386;54.314;10.022;2023-04-23T00:34:22;100555.53;;;14.87;100.00
20455;BME280;10386;54.314;10.022;2023-04-23T00:36:49;100547.50;;;14.86;100.00
20455;BME280;10386;54.314;10.022;2023-04-23T00:39:16;100542.34;;;14.92;100.00
20455;BME280;10386;54.314;10.022;2023-04-23T00:41:47;100540.59;;;14.91;100.00
20455;BME280;10386;54.314;10.022;2023-04-23T00:44:14;100531.94;;;14.86;100.00
20455;BME280;10386;54.314;10.022;2023-04-23T00:46:41;100521.75;;;14.88;100.00
20455;BME280;10386;54.314;10.022;2023-04-23T00:49:09;100519.16;;;14.87;100.00
20455;BME280;10386;54.314;10.022;2023-04-23T00:51:36;100506.50;;;14.86;100.00
20455;BME280;10386;54.314;10.022;2023-04-23T00:54:03;100499.00;;;14.88;100.00
20455;BME280;10386;54.314;10.022;2023-04-23T00:56:30;100491.53;;;14.90;100.00
20455;BME280;10386;54.314;10.022;2023-04-23T00:58:57;100486.63;;;14.84;100.00
20455;BME280;10386;54.314;10.022;2023-04-23T01:01:24;100473.25;;;14.81;100.00
20455;BME280;10386;54.314;10.022;2023-04-23T01:03:52;100472.97;;;14.74;100.00
20455;BME280;10386;54.314;10.022;2023-04-23T01:06:19;100460.59;;;14.70;100.00
20455;BME280;10386;54.314;10.022;2023-04-23T01:08:48;100465.34;;;14.68;100.00
20455;BME280;10386;54.314;10.022;2023-04-23T01:11:15;100458.16;;;14.67;100.00
20455;BME280;10386;54.314;10.022;2023-04-23T01:13:42;100445.66;;;14.65;100.00
20455;BME280;10386;54.314;10.022;2023-04-23T01:16:10;100437.00;;;14.69;100.00
20455;BME280;10386;54.314;10.022;2023-04-23T01:18:37;100434.72;;;14.65;100.00
20455;BME280;10386;54.314;10.022;2023-04-23T01:21:08;100430.00;;;14.67;100.00
20455;BME280;10386;54.314;10.022;2023-04-23T01:23:36;100403.09;;;14.62;100.00
20455;BME280;10386;54.314;10.022;2023-04-23T01:26:03;100391.16;;;14.63;100.00
20455;BME280;10386;54.314;10.022;2023-04-23T01:28:31;100390.44;;;14.61;100.00
20455;BME280;10386;54.314;10.022;2023-04-23T01:30:59;100389.16;;;14.46;100.00
20455;BME280;10386;54.314;10.022;2023-04-23T01:33:27;100384.84;;;14.34;100.00
20455;BME280;10386;54.314;10.022;2023-04-23T01:35:55;100396.78;;;14.14;100.00
20455;BME280;10386;54.314;10.022;2023-04-23T01:38:24;100388.81;;;14.02;100.00
20455;BME280;10386;54.314;10.022;2023-04-23T01:40:53;100377.88;;;14.02;100.00
20455;BME280;10386;54.314;10.022;2023-04-23T01:43:21;100389.19;;;13.69;100.00
20455;BME280;10386;54.314;10.022;2023-04-23T01:45:48;100388.38;;;13.48;100.00
20455;BME280;10386;54.314;10.022;2023-04-23T01:48:15;100380.44;;;13.36;100.00
20455;BME280;10386;54.314;10.022;2023-04-23T01:50:43;100385.13;;;13.24;100.00
20455;BME280;10386;54.314;10.022;2023-04-23T01:53:10;100377.38;;;13.29;100.00
20455;BME280;10386;54.314;10.022;2023-04-23T01:55:37;100379.22;;;13.19;100.00
20455;BME280;10386;54.314;10.022;2023-04-23T01:58:05;100375.44;;;13.11;100.00
20455;BME280;10386;54.314;10.022;2023-04-23T02:00:32;100373.13;;;13.06;100.00
20455;BME280;10386;54.314;10.022;2023-04-23T02:02:59;100363.94;;;13.07;100.00
20455;BME280;10386;54.314;10.022;2023-04-23T02:05:28;100360.09;;;12.89;100.00
20455;BME280;10386;54.314;10.022;2023-04-23T02:07:55;100362.91;;;12.78;100.00
20455;BME280;10386;54.314;10.022;2023-04-23T02:10:22;100358.84;;;12.73;100.00
20455;BME280;10386;54.314;10.022;2023-04-23T02:12:49;100355.84;;;12.76;100.00
20455;BME280;10386;54.314;10.022;2023-04-23T02:15:16;100348.03;;;12.62;100.00
20455;BME280;10386;54.314;10.022;2023-04-23T02:17:43;100337.41;;;12.59;100.00
20455;BME280;10386;54.314;10.022;2023-04-23T02:20:10;100335.53;;;12.59;100.00
20455;BME280;10386;54.314;10.022;2023-04-23T02:22:39;100331.97;;;12.38;100.00
20455;BME280;10386;54.314;10.022;2023-04-23T02:25:07;100332.28;;;12.25;100.00
20455;BME280;10386;54.314;10.022;2023-04-23T02:27:34;100347.47;;;12.07;100.00
20455;BME280;10386;54.314;10.022;2023-04-23T02:30:02;100330.16;;;12.08;100.00
20455;BME280;10386;54.314;10.022;2023-04-23T02:32:29;100331.56;;;11.91;100.00
20455;BME280;10386;54.314;10.022;2023-04-23T02:34:56;100330.41;;;11.73;100.00
20455;BME280;10386;54.314;10.022;2023-04-23T02:37:25;100318.03;;;11.80;100.00
20455;BME280;10386;54.314;10.022;2023-04-23T02:39:52;100322.22;;;11.84;100.00
20455;BME280;10386;54.314;10.022;2023-04-23T02:42:19;100320.03;;;11.67;100.00
20455;BME280;10386;54.314;10.022;2023-04-23T02:44:47;100316.13;;;11.60;100.00
20455;BME280;10386;54.314;10.022;2023-04-23T02:47:14;100308.94;;;11.59;100.00
20455;BME280;10386;54.314;10.022;2023-04-23T02:49:42;100294.22;;;11.51;100.00
20455;BME280;10386;54.314;10.022;2023-04-23T02:52:09;100295.59;;;11.45;100.00
20455;BME280;10386;54.314;10.022;2023-04-23T02:54:37;100285.97;;;11.41;100.00
20455;BME280;10386;54.314;10.022;2023-04-23T02:57:05;100263.59;;;11.49;100.00
20455;BME280;10386;54.314;10.022;2023-04-23T02:59:32;100254.69;;;11.47;100.00
20455;BME280;10386;54.314;10.022;2023-04-23T03:01:58;100244.81;;;11.46;100.00
20455;BME280;10386;54.314;10.022;2023-04-23T03:04:25;100244.09;;;11.44;100.00
20455;BME280;10386;54.314;10.022;2023-04-23T03:06:53;100239.03;;;11.39;100.00
20455;BME280;10386;54.314;10.022;2023-04-23T03:09:20;100229.63;;;11.43;100.00
20455;BME280;10386;54.314;10.022;2023-04-23T03:11:47;100225.63;;;11.27;100.00
20455;BME280;10386;54.314;10.022;2023-04-23T03:14:14;100225.63;;;11.27;100.00
20455;BME280;10386;54.314;10.022;2023-04-23T03:16:41;100226.13;;;11.21;100.00
20455;BME280;10386;54.314;10.022;2023-04-23T03:19:08;100231.94;;;11.16;100.00
20455;BME280;10386;54.314;10.022;2023-04-23T03:21:34;100224.69;;;11.06;100.00
20455;BME280;10386;54.314;10.022;2023-04-23T03:24:01;100217.91;;;11.00;100.00
20455;BME280;10386;54.314;10.022;2023-04-23T03:26:28;100227.28;;;10.97;100.00
20455;BME280;10386;54.314;10.022;2023-04-23T03:28:55;100218.25;;;10.96;100.00
20455;BME280;10386;54.314;10.022;2023-04-23T03:31:22;100227.16;;;10.87;100.00
20455;BME280;10386;54.314;10.022;2023-04-23T03:33:49;100235.34;;;10.76;100.00
20455;BME280;10386;54.314;10.022;2023-04-23T03:36:16;100233.13;;;10.70;100.00
20455;BME280;10386;54.314;10.022;2023-04-23T03:38:43;100238.53;;;10.70;100.00
20455;BME280;10386;54.314;10.022;2023-04-23T03:41:10;100244.72;;;10.72;100.00
20455;BME280;10386;54.314;10.022;2023-04-23T03:43:37;100250.66;;;10.66;100.00
20455;BME280;10386;54.314;10.022;2023-04-23T03:46:04;100254.34;;;10.65;100.00
20455;BME280;10386;54.314;10.022;2023-04-23T03:48:30;100249.41;;;10.70;100.00
20455;BME280;10386;54.314;10.022;2023-04-23T03:50:57;100250.66;;;10.55;100.00
20455;BME280;10386;54.314;10.022;2023-04-23T03:53:25;100243.84;;;10.50;100.00
20455;BME280;10386;54.314;10.022;2023-04-23T03:55:52;100249.41;;;10.48;100.00
20455;BME280;10386;54.314;10.022;2023-04-23T03:58:19;100250.50;;;10.46;100.00
20455;BME280;10386;54.314;10.022;2023-04-23T04:00:45;100246.84;;;10.69;100.00
20455;BME280;10386;54.314;10.022;2023-04-23T04:03:12;100259.03;;;10.52;100.00
20455;BME280;10386;54.314;10.022;2023-04-23T04:05:39;100264.47;;;10.52;100.00
20455;BME280;10386;54.314;10.022;2023-04-23T04:08:06;100257.31;;;10.51;100.00
20455;BME280;10386;54.314;10.022;2023-04-23T04:10:33;100264.97;;;10.46;100.00
20455;BME280;10386;54.314;10.022;2023-04-23T04:13:00;100269.00;;;10.52;100.00
20455;BME280;10386;54.314;10.022;2023-04-23T04:15:27;100274.31;;;10.42;100.00
20455;BME280;10386;54.314;10.022;2023-04-23T04:17:53;100270.25;;;10.59;100.00
20455;BME280;10386;54.314;10.022;2023-04-23T04:20:20;100276.56;;;10.48;100.00
20455;BME280;10386;54.314;10.022;2023-04-23T04:22:47;100283.72;;;10.49;100.00
20455;BME280;10386;54.314;10.022;2023-04-23T04:25:14;100279.03;;;10.51;100.00
20455;BME280;10386;54.314;10.022;2023-04-23T04:27:40;100282.59;;;10.52;100.00
20455;BME280;10386;54.314;10.022;2023-04-23T04:30:07;100283.06;;;10.57;100.00
20455;BME280;10386;54.314;10.022;2023-04-23T04:32:34;100277.53;;;10.58;100.00
20455;BME280;10386;54.314;10.022;2023-04-23T04:35:05;100285.44;;;10.61;100.00
20455;BME280;10386;54.314;10.022;2023-04-23T04:37:32;100282.72;;;10.61;100.00
20455;BME280;10386;54.314;10.022;2023-04-23T04:39:59;100283.56;;;10.51;100.00
20455;BME280;10386;54.314;10.022;2023-04-23T04:42:26;100289.75;;;10.53;100.00
20455;BME280;10386;54.314;10.022;2023-04-23T04:44:53;100282.22;;;10.56;100.00
20455;BME280;10386;54.314;10.022;2023-04-23T04:47:24;100285.69;;;10.58;100.00
20455;BME280;10386;54.314;10.022;2023-04-23T04:49:51;100294.41;;;10.51;100.00
20455;BME280;10386;54.314;10.022;2023-04-23T04:52:18;100292.19;;;10.56;100.00
20455;BME280;10386;54.314;10.022;2023-04-23T04:54:45;100302.31;;;10.43;100.00
20455;BME280;10386;54.314;10.022;2023-04-23T04:57:12;100299.97;;;10.38;100.00
20455;BME280;10386;54.314;10.022;2023-04-23T04:59:38;100306.88;;;10.42;100.00
20455;BME280;10386;54.314;10.022;2023-04-23T05:02:06;100312.56;;;10.50;100.00
20455;BME280;10386;54.314;10.022;2023-04-23T05:04:32;100310.94;;;10.48;100.00
20455;BME280;10386;54.314;10.022;2023-04-23T05:06:59;100305.03;;;10.43;100.00
20455;BME280;10386;54.314;10.022;2023-04-23T05:09:26;100305.66;;;10.46;100.00
20455;BME280;10386;54.314;10.022;2023-04-23T05:11:53;100317.84;;;10.41;100.00
20455;BME280;10386;54.314;10.022;2023-04-23T05:14:20;100321.19;;;10.44;100.00
20455;BME280;10386;54.314;10.022;2023-04-23T05:16:47;100334.59;;;10.35;100.00
20455;BME280;10386;54.314;10.022;2023-04-23T05:19:13;100335.59;;;10.34;100.00
20455;BME280;10386;54.314;10.022;2023-04-23T05:21:40;100339.44;;;10.31;100.00
20455;BME280;10386;54.314;10.022;2023-04-23T05:24:08;100339.41;;;10.20;100.00
20455;BME280;10386;54.314;10.022;2023-04-23T05:26:34;100336.22;;;10.26;100.00
20455;BME280;10386;54.314;10.022;2023-04-23T05:29:01;100348.56;;;10.30;100.00
20455;BME280;10386;54.314;10.022;2023-04-23T05:31:28;100360.38;;;10.29;100.00
20455;BME280;10386;54.314;10.022;2023-04-23T05:33:55;100367.78;;;10.27;100.00
20455;BME280;10386;54.314;10.022;2023-04-23T05:36:22;100362.72;;;10.34;100.00
20455;BME280;10386;54.314;10.022;2023-04-23T05:38:49;100364.72;;;10.43;100.00
20455;BME280;10386;54.314;10.022;2023-04-23T05:41:15;100372.28;;;10.50;100.00
20455;BME280;10386;54.314;10.022;2023-04-23T05:43:42;100394.44;;;10.33;100.00
20455;BME280;10386;54.314;10.022;2023-04-23T05:46:09;100383.97;;;10.40;100.00
20455;BME280;10386;54.314;10.022;2023-04-23T05:48:36;100389.47;;;10.27;100.00
20455;BME280;10386;54.314;10.022;2023-04-23T05:51:03;100395.78;;;10.39;100.00
20455;BME280;10386;54.314;10.022;2023-04-23T05:53:30;100409.63;;;10.47;100.00
20455;BME280;10386;54.314;10.022;2023-04-23T05:55:57;100416.72;;;10.60;100.00
20455;BME280;10386;54.314;10.022;2023-04-23T05:58:24;100426.63;;;10.72;100.00
20455;BME280;10386;54.314;10.022;2023-04-23T06:00:51;100435.97;;;10.68;100.00
20455;BME280;10386;54.314;10.022;2023-04-23T06:03:20;100437.72;;;10.80;100.00
20455;BME280;10386;54.314;10.022;2023-04-23T06:05:48;100460.19;;;10.82;100.00
20455;BME280;10386;54.314;10.022;2023-04-23T06:08:15;100476.63;;;10.81;100.00
20455;BME280;10386;54.314;10.022;2023-04-23T06:10:42;100469.97;;;10.85;100.00
20455;BME280;10386;54.314;10.022;2023-04-23T06:13:09;100493.28;;;10.87;100.00
20455;BME280;10386;54.314;10.022;2023-04-23T06:15:36;100506.13;;;10.85;100.00
20455;BME280;10386;54.314;10.022;2023-04-23T06:18:03;100528.59;;;10.87;100.00
20455;BME280;10386;54.314;10.022;2023-04-23T06:20:31;100525.72;;;11.12;100.00
20455;BME280;10386;54.314;10.022;2023-04-23T06:22:57;100536.88;;;11.20;100.00
20455;BME280;10386;54.314;10.022;2023-04-23T06:25:24;100550.72;;;11.28;100.00
20455;BME280;10386;54.314;10.022;2023-04-23T06:27:51;100567.56;;;11.09;100.00
20455;BME280;10386;54.314;10.022;2023-04-23T06:30:18;100578.22;;;10.89;100.00
20455;BME280;10386;54.314;10.022;2023-04-23T06:32:45;100598.19;;;10.77;100.00
20455;BME280;10386;54.314;10.022;2023-04-23T06:35:12;100609.59;;;10.93;100.00
20455;BME280;10386;54.314;10.022;2023-04-23T06:37:39;100616.16;;;10.91;100.00
20455;BME280;10386;54.314;10.022;2023-04-23T06:40:06;100619.38;;;10.96;100.00
20455;BME280;10386;54.314;10.022;2023-04-23T06:42:33;100626.72;;;11.06;100.00
20455;BME280;10386;54.314;10.022;2023-04-23T06:45:00;100637.22;;;11.10;100.00
20455;BME280;10386;54.314;10.022;2023-04-23T06:47:32;100637.44;;;11.31;100.00
20455;BME280;10386;54.314;10.022;2023-04-23T06:49:58;100643.88;;;11.41;100.00
20455;BME280;10386;54.314;10.022;2023-04-23T06:52:26;100655.00;;;11.38;100.00
20455;BME280;10386;54.314;10.022;2023-04-23T06:54:53;100671.75;;;11.21;100.00
20455;BME280;10386;54.314;10.022;2023-04-23T06:57:22;100672.72;;;11.20;100.00
20455;BME280;10386;54.314;10.022;2023-04-23T06:59:49;100675.25;;;11.34;100.00
20455;BME280;10386;54.314;10.022;2023-04-23T07:02:16;100686.78;;;11.14;100.00
20455;BME280;10386;54.314;10.022;2023-04-23T07:04:44;100687.25;;;11.42;100.00
20455;BME280;10386;54.314;10.022;2023-04-23T07:07:12;100683.03;;;11.62;100.00
20455;BME280;10386;54.314;10.022;2023-04-23T07:09:39;100690.84;;;11.66;100.00
20455;BME280;10386;54.314;10.022;2023-04-23T07:12:06;100687.78;;;11.82;100.00
20455;BME280;10386;54.314;10.022;2023-04-23T07:14:33;100696.25;;;12.01;100.00
20455;BME280;10386;54.314;10.022;2023-04-23T07:17:00;100702.19;;;12.06;100.00
20455;BME280;10386;54.314;10.022;2023-04-23T07:19:27;100713.06;;;11.95;100.00
20455;BME280;10386;54.314;10.022;2023-04-23T07:21:54;100718.81;;;11.79;100.00
20455;BME280;10386;54.314;10.022;2023-04-23T07:24:21;100717.09;;;11.89;100.00
20455;BME280;10386;54.314;10.022;2023-04-23T07:26:48;100725.34;;;11.77;100.00
20455;BME280;10386;54.314;10.022;2023-04-23T07:29:15;100730.38;;;11.94;100.00
20455;BME280;10386;54.314;10.022;2023-04-23T07:31:42;100737.31;;;12.09;100.00
20455;BME280;10386;54.314;10.022;2023-04-23T07:34:09;100744.72;;;12.07;100.00
20455;BME280;10386;54.314;10.022;2023-04-23T07:36:36;100757.16;;;12.43;100.00
20455;BME280;10386;54.314;10.022;2023-04-23T07:39:03;100754.31;;;12.34;100.00
20455;BME280;10386;54.314;10.022;2023-04-23T07:41:31;100762.47;;;12.34;100.00
20455;BME280;10386;54.314;10.022;2023-04-23T07:43:58;100763.97;;;12.49;100.00
20455;BME280;10386;54.314;10.022;2023-04-23T07:46:25;100765.47;;;12.53;100.00
20455;BME280;10386;54.314;10.022;2023-04-23T07:48:52;100770.78;;;12.76;100.00
20455;BME280;10386;54.314;10.022;2023-04-23T07:51:20;100771.28;;;13.03;100.00
20455;BME280;10386;54.314;10.022;2023-04-23T07:53:48;100774.22;;;12.56;100.00
20455;BME280;10386;54.314;10.022;2023-04-23T07:56:16;100777.34;;;12.74;100.00
20455;BME280;10386;54.314;10.022;2023-04-23T07:58:44;100787.88;;;12.89;100.00
20455;BME280;10386;54.314;10.022;2023-04-23T08:01:11;100782.28;;;12.91;100.00
20455;BME280;10386;54.314;10.022;2023-04-23T08:03:37;100791.06;;;12.72;100.00
20455;BME280;10386;54.314;10.022;2023-04-23T08:06:05;100788.25;;;12.96;100.00
20455;BME280;10386;54.314;10.022;2023-04-23T08:08:32;100786.84;;;12.68;100.00
20455;BME280;10386;54.314;10.022;2023-04-23T08:10:58;100786.72;;;12.37;100.00
20455;BME280;10386;54.314;10.022;2023-04-23T08:13:25;100802.22;;;12.58;100.00
20455;BME280;10386;54.314;10.022;2023-04-23T08:15:52;100795.06;;;12.79;100.00
20455;BME280;10386;54.314;10.022;2023-04-23T08:18:19;100795.16;;;12.78;100.00
20455;BME280;10386;54.314;10.022;2023-04-23T08:20:46;100796.66;;;12.71;100.00
20455;BME280;10386;54.314;10.022;2023-04-23T08:23:12;100798.13;;;12.75;100.00
20455;BME280;10386;54.314;10.022;2023-04-23T08:25:39;100801.22;;;12.70;100.00
20455;BME280;10386;54.314;10.022;2023-04-23T08:28:06;100799.03;;;12.75;100.00
20455;BME280;10386;54.314;10.022;2023-04-23T08:30:34;100797.88;;;12.56;100.00
20455;BME280;10386;54.314;10.022;2023-04-23T08:33:01;100798.22;;;12.40;100.00
20455;BME280;10386;54.314;10.022;2023-04-23T08:35:28;100803.19;;;12.68;100.00
20455;BME280;10386;54.314;10.022;2023-04-23T08:37:56;100797.66;;;12.81;100.00
20455;BME280;10386;54.314;10.022;2023-04-23T08:40:23;100803.94;;;12.70;100.00
20455;BME280;10386;54.314;10.022;2023-04-23T08:42:57;100793.31;;;12.78;100.00
20455;BME280;10386;54.314;10.022;2023-04-23T08:45:27;100788.38;;;12.83;100.00
20455;BME280;10386;54.314;10.022;2023-04-23T08:47:58;100789.13;;;12.96;100.00
20455;BME280;10386;54.314;10.022;2023-04-23T08:50:28;100783.44;;;12.99;100.00
20455;BME280;10386;54.314;10.022;2023-04-23T08:52:56;100786.41;;;12.96;100.00
20455;BME280;10386;54.314;10.022;2023-04-23T08:55:24;100786.16;;;12.77;100.00
20455;BME280;10386;54.314;10.022;2023-04-23T08:57:51;100788.72;;;12.90;100.00
20455;BME280;10386;54.314;10.022;2023-04-23T09:00:20;100787.41;;;12.95;100.00
20455;BME280;10386;54.314;10.022;2023-04-23T09:02:49;100791.47;;;13.01;100.00
20455;BME280;10386;54.314;10.022;2023-04-23T09:05:16;100791.69;;;12.87;100.00
20455;BME280;10386;54.314;10.022;2023-04-23T09:07:43;100792.13;;;12.93;100.00
20455;BME280;10386;54.314;10.022;2023-04-23T09:10:11;100787.16;;;12.98;100.00
20455;BME280;10386;54.314;10.022;2023-04-23T09:12:42;100784.44;;;12.98;100.00
20455;BME280;10386;54.314;10.022;2023-04-23T09:15:09;100781.03;;;13.28;100.00
20455;BME280;10386;54.314;10.022;2023-04-23T09:17:45;100774.97;;;13.24;100.00
20455;BME280;10386;54.314;10.022;2023-04-23T09:20:13;100769.97;;;13.40;100.00
20455;BME280;10386;54.314;10.022;2023-04-23T09:22:43;100777.19;;;13.30;100.00
20455;BME280;10386;54.314;10.022;2023-04-23T09:25:15;100775.47;;;13.61;100.00
20455;BME280;10386;54.314;10.022;2023-04-23T09:27:43;100774.84;;;13.15;100.00
20455;BME280;10386;54.314;10.022;2023-04-23T09:30:11;100780.56;;;13.54;100.00
20455;BME280;10386;54.314;10.022;2023-04-23T09:32:41;100782.63;;;13.73;100.00
20455;BME280;10386;54.314;10.022;2023-04-23T09:35:11;100785.03;;;13.66;100.00
20455;BME280;10386;54.314;10.022;2023-04-23T09:37:43;100770.75;;;13.94;100.00
20455;BME280;10386;54.314;10.022;2023-04-23T09:40:19;100769.88;;;13.93;100.00
20455;BME280;10386;54.314;10.022;2023-04-23T09:42:50;100761.63;;;13.84;100.00
20455;BME280;10386;54.314;10.022;2023-04-23T09:45:20;100760.16;;;14.00;100.00
20455;BME280;10386;54.314;10.022;2023-04-23T09:47:54;100754.09;;;13.97;100.00
20455;BME280;10386;54.314;10.022;2023-04-23T09:50:38;100758.19;;;14.43;100.00
20455;BME280;10386;54.314;10.022;2023-04-23T09:53:07;100755.59;;;14.72;100.00
20455;BME280;10386;54.314;10.022;2023-04-23T09:55:38;100743.66;;;14.73;100.00
20455;BME280;10386;54.314;10.022;2023-04-23T09:58:11;100744.13;;;15.17;100.00
20455;BME280;10386;54.314;10.022;2023-04-23T10:00:39;100735.56;;;15.50;100.00
20455;BME280;10386;54.314;10.022;2023-04-23T10:03:07;100731.38;;;15.46;100.00
20455;BME280;10386;54.314;10.022;2023-04-23T10:05:40;100715.56;;;15.01;100.00
20455;BME280;10386;54.314;10.022;2023-04-23T10:08:11;100729.22;;;15.40;100.00
20455;BME280;10386;54.314;10.022;2023-04-23T10:10:39;100731.53;;;15.63;100.00
20455;BME280;10386;54.314;10.022;2023-04-23T10:13:26;100725.34;;;15.42;100.00
20455;BME280;10386;54.314;10.022;2023-04-23T10:15:54;100722.34;;;15.06;100.00
20455;BME280;10386;54.314;10.022;2023-04-23T10:18:31;100718.72;;;15.35;100.00
20455;BME280;10386;54.314;10.022;2023-04-23T10:21:00;100707.34;;;15.49;100.00
20455;BME280;10386;54.314;10.022;2023-04-23T10:23:29;100713.09;;;15.56;100.00
20455;BME280;10386;54.314;10.022;2023-04-23T10:25:59;100699.00;;;15.60;100.00
20455;BME280;10386;54.314;10.022;2023-04-23T10:28:28;100701.41;;;15.73;100.00
20455;BME280;10386;54.314;10.022;2023-04-23T10:30:58;100707.19;;;15.60;100.00
20455;BME280;10386;54.314;10.022;2023-04-23T10:33:27;100692.34;;;15.34;100.00
20455;BME280;10386;54.314;10.022;2023-04-23T10:36:08;100695.22;;;15.90;100.00
20455;BME280;10386;54.314;10.022;2023-04-23T10:38:35;100674.13;;;16.09;100.00
20455;BME280;10386;54.314;10.022;2023-04-23T10:41:19;100675.53;;;16.32;100.00
20455;BME280;10386;54.314;10.022;2023-04-23T10:43:52;100670.25;;;16.21;100.00
20455;BME280;10386;54.314;10.022;2023-04-23T10:46:37;100696.41;;;16.52;100.00
20455;BME280;10386;54.314;10.022;2023-04-23T10:51:35;100665.25;;;16.80;100.00
20455;BME280;10386;54.314;10.022;2023-04-23T10:54:06;100661.19;;;17.28;100.00
20455;BME280;10386;54.314;10.022;2023-04-23T10:56:33;100623.13;;;17.43;100.00
20455;BME280;10386;54.314;10.022;2023-04-23T10:59:00;100616.59;;;17.44;100.00
20455;BME280;10386;54.314;10.022;2023-04-23T11:01:28;100637.19;;;17.13;100.00
20455;BME280;10386;54.314;10.022;2023-04-23T11:03:57;100652.44;;;17.42;100.00
20455;BME280;10386;54.314;10.022;2023-04-23T11:09:28;100654.31;;;16.97;100.00
20455;BME280;10386;54.314;10.022;2023-04-23T11:11:59;100635.47;;;16.67;100.00
20455;BME280;10386;54.314;10.022;2023-04-23T11:14:34;100649.28;;;16.93;100.00
20455;BME280;10386;54.314;10.022;2023-04-23T11:17:04;100613.28;;;17.23;100.00
20455;BME280;10386;54.314;10.022;2023-04-23T11:19:35;100606.22;;;17.20;100.00
20455;BME280;10386;54.314;10.022;2023-04-23T11:22:13;100605.00;;;17.50;100.00
20455;BME280;10386;54.314;10.022;2023-04-23T11:24:41;100600.13;;;17.44;100.00
20455;BME280;10386;54.314;10.022;2023-04-23T11:27:13;100576.66;;;16.97;100.00
20455;BME280;10386;54.314;10.022;2023-04-23T11:29:43;100622.56;;;16.95;100.00
20455;BME280;10386;54.314;10.022;2023-04-23T11:32:15;100631.56;;;17.32;100.00
20455;BME280;10386;54.314;10.022;2023-04-23T11:34:44;100612.78;;;17.80;100.00
20455;BME280;10386;54.314;10.022;2023-04-23T11:37:16;100629.25;;;17.80;100.00
20455;BME280;10386;54.314;10.022;2023-04-23T11:39:44;100626.50;;;17.37;100.00
20455;BME280;10386;54.314;10.022;2023-04-23T11:42:14;100623.81;;;17.45;100.00
20455;BME280;10386;54.314;10.022;2023-04-23T11:44:43;100642.13;;;17.79;100.00
20455;BME280;10386;54.314;10.022;2023-04-23T11:47:12;100617.81;;;17.67;100.00
20455;BME280;10386;54.314;10.022;2023-04-23T11:49:40;100606.66;;;17.43;100.00
20455;BME280;10386;54.314;10.022;2023-04-23T11:52:11;100608.13;;;17.55;100.00
20455;BME280;10386;54.314;10.022;2023-04-23T11:54:41;100607.78;;;17.75;100.00
20455;BME280;10386;54.314;10.022;2023-04-23T11:57:08;100601.16;;;17.60;100.00
20455;BME280;10386;54.314;10.022;2023-04-23T11:59:36;100589.53;;;17.92;100.00
20455;BME280;10386;54.314;10.022;2023-04-23T12:02:02;100599.81;;;18.15;100.00
20455;BME280;10386;54.314;10.022;2023-04-23T12:04:30;100599.56;;;18.01;100.00
20455;BME280;10386;54.314;10.022;2023-04-23T12:06:58;100612.09;;;18.03;100.00
20455;BME280;10386;54.314;10.022;2023-04-23T12:09:26;100608.06;;;17.90;100.00
20455;BME280;10386;54.314;10.022;2023-04-23T12:11:55;100599.03;;;17.80;100.00
20455;BME280;10386;54.314;10.022;2023-04-23T12:14:28;100613.91;;;18.20;100.00
20455;BME280;10386;54.314;10.022;2023-04-23T12:16:56;100607.81;;;18.59;100.00
20455;BME280;10386;54.314;10.022;2023-04-23T12:19:29;100579.38;;;18.84;100.00
20455;BME280;10386;54.314;10.022;2023-04-23T12:21:58;100596.78;;;18.51;100.00
20455;BME280;10386;54.314;10.022;2023-04-23T12:24:43;100604.63;;;18.80;100.00
20455;BME280;10386;54.314;10.022;2023-04-23T12:27:13;100569.25;;;18.18;100.00
20455;BME280;10386;54.314;10.022;2023-04-23T12:29:41;100589.00;;;18.39;100.00
20455;BME280;10386;54.314;10.022;2023-04-23T12:32:10;100571.44;;;18.73;100.00
20455;BME280;10386;54.314;10.022;2023-04-23T12:34:50;100579.69;;;18.73;100.00
20455;BME280;10386;54.314;10.022;2023-04-23T12:37:23;100551.34;;;18.39;100.00
20455;BME280;10386;54.314;10.022;2023-04-23T12:39:51;100548.50;;;18.49;100.00
20455;BME280;10386;54.314;10.022;2023-04-23T12:42:18;100537.56;;;18.81;100.00